sensor_id;sensor_type;location;lat;lon;timestamp;P1;durP1;ratioP1;P2;durP2;ratioP2
3755;SDS011;1893;52.526;13.360;2022-12-11T00:01:28;25.00;;;11.97;;
3755;SDS011;1893;52.526;13.360;2022-12-11T00:03:53;24.00;;;11.70;;
3755;SDS011;1893;52.526;13.360;2022-12-11T00:06:20;23.27;;;11.83;;
3755;SDS011;1893;52.526;13.360;2022-12-11T00:08:49;19.98;;;11.70;;
3755;SDS011;1893;52.526;13.360;2022-12-11T00:11:16;22.63;;;11.18;;
3755;SDS011;1893;52.526;13.360;2022-12-11T00:13:42;20.80;;;10.67;;
3755;SDS011;1893;52.526;13.360;2022-12-11T00:16:08;26.15;;;11.35;;
3755;SDS011;1893;52.526;13.360;2022-12-11T00:18:34;18.93;;;10.37;;
3755;SDS011;1893;52.526;13.360;2022-12-11T00:21:00;19.65;;;9.93;;
3755;SDS011;1893;52.526;13.360;2022-12-11T00:23:27;19.73;;;11.48;;
3755;SDS011;1893;52.526;13.360;2022-12-11T00:25:53;19.90;;;10.00;;
3755;SDS011;1893;52.526;13.360;2022-12-11T00:28:19;24.83;;;12.80;;
3755;SDS011;1893;52.526;13.360;2022-12-11T00:30:45;27.77;;;11.55;;
3755;SDS011;1893;52.526;13.360;2022-12-11T00:33:11;18.63;;;9.82;;
3755;SDS011;1893;52.526;13.360;2022-12-11T00:35:39;21.88;;;11.50;;
3755;SDS011;1893;52.526;13.360;2022-12-11T00:38:05;21.83;;;10.20;;
3755;SDS011;1893;52.526;13.360;2022-12-11T00:40:34;26.80;;;11.87;;
3755;SDS011;1893;52.526;13.360;2022-12-11T00:43:01;19.92;;;11.45;;
3755;SDS011;1893;52.526;13.360;2022-12-11T00:45:27;24.98;;;12.18;;
3755;SDS011;1893;52.526;13.360;2022-12-11T00:47:53;22.80;;;11.63;;
3755;SDS011;1893;52.526;13.360;2022-12-11T00:50:19;24.97;;;12.67;;
3755;SDS011;1893;52.526;13.360;2022-12-11T00:52:44;20.80;;;11.07;;
3755;SDS011;1893;52.526;13.360;2022-12-11T00:55:10;23.10;;;12.17;;
3755;SDS011;1893;52.526;13.360;2022-12-11T00:57:35;26.70;;;11.37;;
3755;SDS011;1893;52.526;13.360;2022-12-11T01:00:02;19.47;;;10.60;;
3755;SDS011;1893;52.526;13.360;2022-12-11T01:02:31;27.83;;;12.23;;
3755;SDS011;1893;52.526;13.360;2022-12-11T01:04:57;25.75;;;12.45;;
3755;SDS011;1893;52.526;13.360;2022-12-11T01:07:22;23.50;;;12.43;;
3755;SDS011;1893;52.526;13.360;2022-12-11T01:09:48;27.17;;;12.03;;
3755;SDS011;1893;52.526;13.360;2022-12-11T01:12:32;22.60;;;12.10;;
3755;SDS011;1893;52.526;13.360;2022-12-11T01:14:58;28.80;;;13.10;;
3755;SDS011;1893;52.526;13.360;2022-12-11T01:17:23;25.67;;;12.40;;
3755;SDS011;1893;52.526;13.360;2022-12-11T01:19:49;29.43;;;12.23;;
3755;SDS011;1893;52.526;13.360;2022-12-11T01:22:17;30.83;;;14.48;;
3755;SDS011;1893;52.526;13.360;2022-12-11T01:24:42;33.60;;;13.90;;
3755;SDS011;1893;52.526;13.360;2022-12-11T01:27:08;25.00;;;12.57;;
3755;SDS011;1893;52.526;13.360;2022-12-11T01:29:33;24.63;;;12.70;;
3755;SDS011;1893;52.526;13.360;2022-12-11T01:31:59;25.10;;;11.47;;
3755;SDS011;1893;52.526;13.360;2022-12-11T01:34:27;22.80;;;11.90;;
3755;SDS011;1893;52.526;13.360;2022-12-11T01:36:54;34.30;;;13.32;;
3755;SDS011;1893;52.526;13.360;2022-12-11T01:39:19;26.30;;;11.60;;
3755;SDS011;1893;52.526;13.360;2022-12-11T01:41:45;28.27;;;12.97;;
3755;SDS011;1893;52.526;13.360;2022-12-11T01:46:39;24.27;;;12.00;;
3755;SDS011;1893;52.526;13.360;2022-12-11T01:49:06;24.70;;;12.95;;
3755;SDS011;1893;52.526;13.360;2022-12-11T01:51:38;29.25;;;13.55;;
3755;SDS011;1893;52.526;13.360;2022-12-11T01:54:09;34.47;;;14.25;;
3755;SDS011;1893;52.526;13.360;2022-12-11T01:56:37;30.08;;;13.90;;
3755;SDS011;1893;52.526;13.360;2022-12-11T01:59:05;32.20;;;13.90;;
3755;SDS011;1893;52.526;13.360;2022-12-11T02:04:00;31.00;;;14.40;;
3755;SDS011;1893;52.526;13.360;2022-12-11T02:06:31;25.20;;;13.23;;
3755;SDS011;1893;52.526;13.360;2022-12-11T02:09:06;29.58;;;14.60;;
3755;SDS011;1893;52.526;13.360;2022-12-11T02:19:43;22.70;;;13.00;;
3755;SDS011;1893;52.526;13.360;2022-12-11T02:28:35;30.35;;;13.35;;
3755;SDS011;1893;52.526;13.360;2022-12-11T02:31:43;28.65;;;13.45;;
3755;SDS011;1893;52.526;13.360;2022-12-11T02:36:32;26.92;;;12.95;;
3755;SDS011;1893;52.526;13.360;2022-12-11T02:39:02;23.58;;;13.02;;
3755;SDS011;1893;52.526;13.360;2022-12-11T02:41:31;27.30;;;13.13;;
3755;SDS011;1893;52.526;13.360;2022-12-11T02:43:57;26.98;;;13.98;;
3755;SDS011;1893;52.526;13.360;2022-12-11T02:46:26;30.85;;;14.05;;
3755;SDS011;1893;52.526;13.360;2022-12-11T02:48:52;24.65;;;12.75;;
3755;SDS011;1893;52.526;13.360;2022-12-11T02:51:27;26.27;;;12.60;;
3755;SDS011;1893;52.526;13.360;2022-12-11T02:53:58;27.33;;;13.60;;
3755;SDS011;1893;52.526;13.360;2022-12-11T02:56:47;29.38;;;15.07;;
3755;SDS011;1893;52.526;13.360;2022-12-11T02:59:26;27.85;;;13.95;;
3755;SDS011;1893;52.526;13.360;2022-12-11T03:01:58;30.80;;;13.82;;
3755;SDS011;1893;52.526;13.360;2022-12-11T03:04:24;28.57;;;14.13;;
3755;SDS011;1893;52.526;13.360;2022-12-11T03:06:51;26.67;;;14.63;;
3755;SDS011;1893;52.526;13.360;2022-12-11T03:09:23;30.63;;;14.80;;
3755;SDS011;1893;52.526;13.360;2022-12-11T03:11:49;33.87;;;13.00;;
3755;SDS011;1893;52.526;13.360;2022-12-11T03:14:16;31.98;;;15.23;;
3755;SDS011;1893;52.526;13.360;2022-12-11T03:16:46;29.23;;;12.60;;
3755;SDS011;1893;52.526;13.360;2022-12-11T03:19:37;29.63;;;14.20;;
3755;SDS011;1893;52.526;13.360;2022-12-11T03:22:14;28.67;;;14.50;;
3755;SDS011;1893;52.526;13.360;2022-12-11T03:24:52;29.25;;;13.30;;
3755;SDS011;1893;52.526;13.360;2022-12-11T03:30:20;29.67;;;13.27;;
3755;SDS011;1893;52.526;13.360;2022-12-11T03:32:52;34.95;;;14.57;;
3755;SDS011;1893;52.526;13.360;2022-12-11T03:37:57;30.20;;;14.80;;
3755;SDS011;1893;52.526;13.360;2022-12-11T03:40:27;30.05;;;15.15;;
3755;SDS011;1893;52.526;13.360;2022-12-11T03:42:57;32.13;;;15.27;;
3755;SDS011;1893;52.526;13.360;2022-12-11T03:45:24;31.80;;;14.57;;
3755;SDS011;1893;52.526;13.360;2022-12-11T03:47:51;33.05;;;13.55;;
3755;SDS011;1893;52.526;13.360;2022-12-11T03:50:19;33.92;;;14.60;;
3755;SDS011;1893;52.526;13.360;2022-12-11T03:52:47;30.75;;;14.55;;
3755;SDS011;1893;52.526;13.360;2022-12-11T03:55:16;31.45;;;14.85;;
3755;SDS011;1893;52.526;13.360;2022-12-11T03:57:43;27.40;;;13.75;;
3755;SDS011;1893;52.526;13.360;2022-12-11T04:00:10;28.17;;;14.90;;
3755;SDS011;1893;52.526;13.360;2022-12-11T04:02:39;33.33;;;15.00;;
3755;SDS011;1893;52.526;13.360;2022-12-11T04:05:05;29.80;;;14.60;;
3755;SDS011;1893;52.526;13.360;2022-12-11T04:07:31;31.33;;;15.20;;
3755;SDS011;1893;52.526;13.360;2022-12-11T04:09:57;27.60;;;13.60;;
3755;SDS011;1893;52.526;13.360;2022-12-11T04:12:23;30.80;;;14.53;;
3755;SDS011;1893;52.526;13.360;2022-12-11T04:14:48;30.83;;;14.60;;
3755;SDS011;1893;52.526;13.360;2022-12-11T04:17:27;30.35;;;14.75;;
3755;SDS011;1893;52.526;13.360;2022-12-11T04:20:18;23.77;;;13.90;;
3755;SDS011;1893;52.526;13.360;2022-12-11T04:23:04;40.80;;;15.25;;
3755;SDS011;1893;52.526;13.360;2022-12-11T04:26:06;30.48;;;14.52;;
3755;SDS011;1893;52.526;13.360;2022-12-11T04:28:32;38.40;;;14.63;;
3755;SDS011;1893;52.526;13.360;2022-12-11T04:30:58;32.03;;;15.67;;
3755;SDS011;1893;52.526;13.360;2022-12-11T04:33:23;32.37;;;14.00;;
3755;SDS011;1893;52.526;13.360;2022-12-11T04:35:49;39.23;;;16.80;;
3755;SDS011;1893;52.526;13.360;2022-12-11T04:38:15;33.17;;;14.60;;
3755;SDS011;1893;52.526;13.360;2022-12-11T04:40:40;30.37;;;14.90;;
3755;SDS011;1893;52.526;13.360;2022-12-11T04:43:06;31.17;;;14.20;;
3755;SDS011;1893;52.526;13.360;2022-12-11T04:45:31;38.53;;;15.37;;
3755;SDS011;1893;52.526;13.360;2022-12-11T04:47:57;29.00;;;13.47;;
3755;SDS011;1893;52.526;13.360;2022-12-11T04:50:23;28.60;;;14.03;;
3755;SDS011;1893;52.526;13.360;2022-12-11T04:52:49;36.65;;;15.98;;
3755;SDS011;1893;52.526;13.360;2022-12-11T04:55:18;28.98;;;14.93;;
3755;SDS011;1893;52.526;13.360;2022-12-11T04:57:44;33.90;;;15.30;;
3755;SDS011;1893;52.526;13.360;2022-12-11T05:00:10;36.23;;;16.43;;
3755;SDS011;1893;52.526;13.360;2022-12-11T05:02:37;28.23;;;12.55;;
3755;SDS011;1893;52.526;13.360;2022-12-11T05:05:04;26.65;;;13.70;;
3755;SDS011;1893;52.526;13.360;2022-12-11T05:07:31;33.83;;;14.55;;
3755;SDS011;1893;52.526;13.360;2022-12-11T05:09:56;32.80;;;14.53;;
3755;SDS011;1893;52.526;13.360;2022-12-11T05:12:22;31.13;;;15.10;;
3755;SDS011;1893;52.526;13.360;2022-12-11T05:14:50;32.63;;;14.60;;
3755;SDS011;1893;52.526;13.360;2022-12-11T05:17:17;39.10;;;14.35;;
3755;SDS011;1893;52.526;13.360;2022-12-11T05:19:43;27.07;;;14.17;;
3755;SDS011;1893;52.526;13.360;2022-12-11T05:22:10;30.20;;;16.02;;
3755;SDS011;1893;52.526;13.360;2022-12-11T05:24:36;28.70;;;13.30;;
3755;SDS011;1893;52.526;13.360;2022-12-11T05:27:01;28.20;;;14.90;;
3755;SDS011;1893;52.526;13.360;2022-12-11T05:29:27;31.53;;;14.57;;
3755;SDS011;1893;52.526;13.360;2022-12-11T05:31:53;30.93;;;14.97;;
3755;SDS011;1893;52.526;13.360;2022-12-11T05:34:18;34.67;;;15.17;;
3755;SDS011;1893;52.526;13.360;2022-12-11T05:36:44;27.53;;;13.67;;
3755;SDS011;1893;52.526;13.360;2022-12-11T05:39:09;30.50;;;13.30;;
3755;SDS011;1893;52.526;13.360;2022-12-11T05:41:35;33.83;;;13.25;;
3755;SDS011;1893;52.526;13.360;2022-12-11T05:44:08;23.47;;;12.40;;
3755;SDS011;1893;52.526;13.360;2022-12-11T05:46:36;26.85;;;12.02;;
3755;SDS011;1893;52.526;13.360;2022-12-11T05:49:01;30.03;;;13.87;;
3755;SDS011;1893;52.526;13.360;2022-12-11T05:51:27;23.77;;;12.23;;
3755;SDS011;1893;52.526;13.360;2022-12-11T05:53:54;29.05;;;13.32;;
3755;SDS011;1893;52.526;13.360;2022-12-11T05:56:22;32.13;;;14.25;;
3755;SDS011;1893;52.526;13.360;2022-12-11T05:58:50;29.92;;;13.40;;
3755;SDS011;1893;52.526;13.360;2022-12-11T06:01:17;22.55;;;11.77;;
3755;SDS011;1893;52.526;13.360;2022-12-11T06:03:44;29.10;;;15.75;;
3755;SDS011;1893;52.526;13.360;2022-12-11T06:06:10;32.73;;;14.03;;
3755;SDS011;1893;52.526;13.360;2022-12-11T06:08:36;26.63;;;13.87;;
3755;SDS011;1893;52.526;13.360;2022-12-11T06:11:02;27.17;;;13.27;;
3755;SDS011;1893;52.526;13.360;2022-12-11T06:13:28;31.02;;;11.45;;
3755;SDS011;1893;52.526;13.360;2022-12-11T06:15:54;26.83;;;13.75;;
3755;SDS011;1893;52.526;13.360;2022-12-11T06:18:23;28.55;;;13.85;;
3755;SDS011;1893;52.526;13.360;2022-12-11T06:20:49;29.20;;;12.53;;
3755;SDS011;1893;52.526;13.360;2022-12-11T06:23:14;32.83;;;13.07;;
3755;SDS011;1893;52.526;13.360;2022-12-11T06:25:40;24.57;;;12.80;;
3755;SDS011;1893;52.526;13.360;2022-12-11T06:28:06;26.43;;;11.63;;
3755;SDS011;1893;52.526;13.360;2022-12-11T06:30:31;19.33;;;10.80;;
3755;SDS011;1893;52.526;13.360;2022-12-11T06:32:57;21.60;;;10.57;;
3755;SDS011;1893;52.526;13.360;2022-12-11T06:35:23;16.85;;;9.73;;
3755;SDS011;1893;52.526;13.360;2022-12-11T06:37:50;19.02;;;10.20;;
3755;SDS011;1893;52.526;13.360;2022-12-11T06:40:15;26.43;;;11.07;;
3755;SDS011;1893;52.526;13.360;2022-12-11T06:42:41;20.20;;;10.33;;
3755;SDS011;1893;52.526;13.360;2022-12-11T06:45:07;20.00;;;11.53;;
3755;SDS011;1893;52.526;13.360;2022-12-11T06:47:33;18.85;;;9.68;;
3755;SDS011;1893;52.526;13.360;2022-12-11T06:49:58;19.10;;;10.50;;
3755;SDS011;1893;52.526;13.360;2022-12-11T06:52:25;19.55;;;9.25;;
3755;SDS011;1893;52.526;13.360;2022-12-11T06:54:53;21.90;;;9.73;;
3755;SDS011;1893;52.526;13.360;2022-12-11T06:57:20;19.42;;;10.05;;
3755;SDS011;1893;52.526;13.360;2022-12-11T06:59:46;18.50;;;9.63;;
3755;SDS011;1893;52.526;13.360;2022-12-11T07:02:12;20.27;;;9.27;;
3755;SDS011;1893;52.526;13.360;2022-12-11T07:04:39;17.88;;;9.52;;
3755;SDS011;1893;52.526;13.360;2022-12-11T07:07:05;17.08;;;8.95;;
3755;SDS011;1893;52.526;13.360;2022-12-11T07:09:31;18.77;;;8.77;;
3755;SDS011;1893;52.526;13.360;2022-12-11T07:11:59;16.58;;;8.30;;
3755;SDS011;1893;52.526;13.360;2022-12-11T07:14:25;16.83;;;8.27;;
3755;SDS011;1893;52.526;13.360;2022-12-11T07:16:51;21.23;;;9.10;;
3755;SDS011;1893;52.526;13.360;2022-12-11T07:19:16;17.77;;;9.57;;
3755;SDS011;1893;52.526;13.360;2022-12-11T07:21:42;16.70;;;8.70;;
3755;SDS011;1893;52.526;13.360;2022-12-11T07:24:08;20.73;;;8.50;;
3755;SDS011;1893;52.526;13.360;2022-12-11T07:26:33;18.37;;;9.40;;
3755;SDS011;1893;52.526;13.360;2022-12-11T07:28:59;15.20;;;8.73;;
3755;SDS011;1893;52.526;13.360;2022-12-11T07:31:26;18.53;;;9.20;;
3755;SDS011;1893;52.526;13.360;2022-12-11T07:33:57;19.42;;;9.30;;
3755;SDS011;1893;52.526;13.360;2022-12-11T07:36:25;23.45;;;9.68;;
3755;SDS011;1893;52.526;13.360;2022-12-11T07:38:51;25.30;;;10.30;;
3755;SDS011;1893;52.526;13.360;2022-12-11T07:41:18;16.40;;;7.68;;
3755;SDS011;1893;52.526;13.360;2022-12-11T07:43:43;14.10;;;6.90;;
3755;SDS011;1893;52.526;13.360;2022-12-11T07:46:14;19.57;;;8.40;;
3755;SDS011;1893;52.526;13.360;2022-12-11T07:48:45;16.15;;;7.45;;
3755;SDS011;1893;52.526;13.360;2022-12-11T07:53:43;16.30;;;8.65;;
3755;SDS011;1893;52.526;13.360;2022-12-11T07:56:10;14.10;;;7.90;;
3755;SDS011;1893;52.526;13.360;2022-12-11T07:58:36;13.70;;;8.80;;
3755;SDS011;1893;52.526;13.360;2022-12-11T08:01:03;17.40;;;9.00;;
3755;SDS011;1893;52.526;13.360;2022-12-11T08:03:29;18.02;;;9.10;;
3755;SDS011;1893;52.526;13.360;2022-12-11T08:05:55;17.20;;;8.93;;
3755;SDS011;1893;52.526;13.360;2022-12-11T08:08:21;19.93;;;9.00;;
3755;SDS011;1893;52.526;13.360;2022-12-11T08:10:46;15.83;;;9.07;;
3755;SDS011;1893;52.526;13.360;2022-12-11T08:13:12;18.20;;;8.90;;
3755;SDS011;1893;52.526;13.360;2022-12-11T08:15:37;25.00;;;9.63;;
3755;SDS011;1893;52.526;13.360;2022-12-11T08:18:04;20.43;;;9.40;;
3755;SDS011;1893;52.526;13.360;2022-12-11T08:20:29;18.02;;;9.30;;
3755;SDS011;1893;52.526;13.360;2022-12-11T08:22:55;17.93;;;9.03;;
3755;SDS011;1893;52.526;13.360;2022-12-11T08:25:21;22.48;;;9.35;;
3755;SDS011;1893;52.526;13.360;2022-12-11T08:27:47;19.80;;;9.50;;
3755;SDS011;1893;52.526;13.360;2022-12-11T08:30:13;16.43;;;9.30;;
3755;SDS011;1893;52.526;13.360;2022-12-11T08:32:38;21.40;;;9.00;;
3755;SDS011;1893;52.526;13.360;2022-12-11T08:35:04;17.97;;;9.90;;
3755;SDS011;1893;52.526;13.360;2022-12-11T08:37:30;22.50;;;10.10;;
3755;SDS011;1893;52.526;13.360;2022-12-11T08:39:56;22.47;;;8.80;;
3755;SDS011;1893;52.526;13.360;2022-12-11T08:42:21;19.23;;;8.13;;
3755;SDS011;1893;52.526;13.360;2022-12-11T08:44:47;15.43;;;9.07;;
3755;SDS011;1893;52.526;13.360;2022-12-11T08:47:12;18.93;;;9.37;;
3755;SDS011;1893;52.526;13.360;2022-12-11T08:49:39;19.48;;;9.15;;
3755;SDS011;1893;52.526;13.360;2022-12-11T08:52:05;19.67;;;8.50;;
3755;SDS011;1893;52.526;13.360;2022-12-11T08:54:31;17.10;;;8.35;;
3755;SDS011;1893;52.526;13.360;2022-12-11T08:56:56;15.90;;;9.53;;
3755;SDS011;1893;52.526;13.360;2022-12-11T08:59:22;20.87;;;10.30;;
3755;SDS011;1893;52.526;13.360;2022-12-11T09:01:49;19.25;;;10.52;;
3755;SDS011;1893;52.526;13.360;2022-12-11T09:04:15;22.97;;;9.53;;
3755;SDS011;1893;52.526;13.360;2022-12-11T09:06:40;19.00;;;9.77;;
3755;SDS011;1893;52.526;13.360;2022-12-11T09:09:06;14.90;;;8.90;;
3755;SDS011;1893;52.526;13.360;2022-12-11T09:11:32;14.97;;;8.20;;
3755;SDS011;1893;52.526;13.360;2022-12-11T09:14:00;16.95;;;9.43;;
3755;SDS011;1893;52.526;13.360;2022-12-11T09:16:26;24.13;;;9.95;;
3755;SDS011;1893;52.526;13.360;2022-12-11T09:18:55;17.58;;;8.75;;
3755;SDS011;1893;52.526;13.360;2022-12-11T09:21:23;19.52;;;9.65;;
3755;SDS011;1893;52.526;13.360;2022-12-11T09:23:53;20.00;;;8.25;;
3755;SDS011;1893;52.526;13.360;2022-12-11T09:26:20;16.30;;;8.68;;
3755;SDS011;1893;52.526;13.360;2022-12-11T09:28:46;13.38;;;8.18;;
3755;SDS011;1893;52.526;13.360;2022-12-11T09:31:14;18.33;;;9.30;;
3755;SDS011;1893;52.526;13.360;2022-12-11T09:33:41;19.10;;;9.65;;
3755;SDS011;1893;52.526;13.360;2022-12-11T09:36:08;19.77;;;9.65;;
3755;SDS011;1893;52.526;13.360;2022-12-11T09:38:34;16.67;;;9.50;;
3755;SDS011;1893;52.526;13.360;2022-12-11T09:41:00;15.97;;;9.30;;
3755;SDS011;1893;52.526;13.360;2022-12-11T09:46:13;18.77;;;9.60;;
3755;SDS011;1893;52.526;13.360;2022-12-11T09:48:41;19.85;;;10.52;;
3755;SDS011;1893;52.526;13.360;2022-12-11T09:51:15;19.27;;;10.18;;
3755;SDS011;1893;52.526;13.360;2022-12-11T09:53:46;19.15;;;9.55;;
3755;SDS011;1893;52.526;13.360;2022-12-11T09:56:26;17.52;;;9.88;;
3755;SDS011;1893;52.526;13.360;2022-12-11T10:02:02;21.15;;;10.70;;
3755;SDS011;1893;52.526;13.360;2022-12-11T10:05:02;16.40;;;10.32;;
3755;SDS011;1893;52.526;13.360;2022-12-11T10:07:47;19.33;;;10.32;;
3755;SDS011;1893;52.526;13.360;2022-12-11T10:15:50;18.30;;;8.90;;
3755;SDS011;1893;52.526;13.360;2022-12-11T10:18:27;21.98;;;10.82;;
3755;SDS011;1893;52.526;13.360;2022-12-11T10:20:55;15.30;;;9.95;;
3755;SDS011;1893;52.526;13.360;2022-12-11T10:23:29;18.48;;;9.02;;
3755;SDS011;1893;52.526;13.360;2022-12-11T10:26:16;16.85;;;8.48;;
3755;SDS011;1893;52.526;13.360;2022-12-11T10:28:44;21.83;;;11.07;;
3755;SDS011;1893;52.526;13.360;2022-12-11T10:31:14;17.83;;;10.02;;
3755;SDS011;1893;52.526;13.360;2022-12-11T10:33:47;21.95;;;10.70;;
3755;SDS011;1893;52.526;13.360;2022-12-11T10:36:15;18.85;;;9.20;;
3755;SDS011;1893;52.526;13.360;2022-12-11T10:38:44;25.17;;;11.18;;
3755;SDS011;1893;52.526;13.360;2022-12-11T10:43:40;19.67;;;9.82;;
3755;SDS011;1893;52.526;13.360;2022-12-11T10:46:18;17.75;;;10.50;;
3755;SDS011;1893;52.526;13.360;2022-12-11T10:48:49;21.27;;;10.43;;
3755;SDS011;1893;52.526;13.360;2022-12-11T10:53:59;17.63;;;10.00;;
3755;SDS011;1893;52.526;13.360;2022-12-11T10:56:31;20.88;;;10.15;;
3755;SDS011;1893;52.526;13.360;2022-12-11T10:58:57;22.00;;;11.07;;
3755;SDS011;1893;52.526;13.360;2022-12-11T11:01:28;23.45;;;11.43;;
3755;SDS011;1893;52.526;13.360;2022-12-11T11:03:56;17.05;;;9.30;;
3755;SDS011;1893;52.526;13.360;2022-12-11T11:06:39;15.68;;;10.02;;
3755;SDS011;1893;52.526;13.360;2022-12-11T11:09:21;21.92;;;12.05;;
3755;SDS011;1893;52.526;13.360;2022-12-11T11:11:53;17.58;;;10.07;;
3755;SDS011;1893;52.526;13.360;2022-12-11T11:14:19;21.03;;;9.93;;
3755;SDS011;1893;52.526;13.360;2022-12-11T11:16:47;20.27;;;11.45;;
3755;SDS011;1893;52.526;13.360;2022-12-11T11:22:04;19.20;;;11.15;;
3755;SDS011;1893;52.526;13.360;2022-12-11T11:24:38;18.50;;;10.57;;
3755;SDS011;1893;52.526;13.360;2022-12-11T11:29:53;18.48;;;10.02;;
3755;SDS011;1893;52.526;13.360;2022-12-11T11:32:37;19.13;;;10.23;;
3755;SDS011;1893;52.526;13.360;2022-12-11T11:37:44;22.90;;;11.95;;
3755;SDS011;1893;52.526;13.360;2022-12-11T11:40:19;19.63;;;8.50;;
3755;SDS011;1893;52.526;13.360;2022-12-11T11:42:53;19.67;;;9.82;;
3755;SDS011;1893;52.526;13.360;2022-12-11T11:45:34;20.25;;;10.73;;
3755;SDS011;1893;52.526;13.360;2022-12-11T11:48:43;23.20;;;10.50;;
3755;SDS011;1893;52.526;13.360;2022-12-11T11:51:15;19.20;;;10.60;;
3755;SDS011;1893;52.526;13.360;2022-12-11T11:53:59;22.08;;;11.20;;
3755;SDS011;1893;52.526;13.360;2022-12-11T11:56:29;16.42;;;8.70;;
3755;SDS011;1893;52.526;13.360;2022-12-11T11:59:06;19.67;;;9.00;;
3755;SDS011;1893;52.526;13.360;2022-12-11T12:01:49;21.45;;;9.88;;
3755;SDS011;1893;52.526;13.360;2022-12-11T12:04:17;21.10;;;9.43;;
3755;SDS011;1893;52.526;13.360;2022-12-11T12:15:00;15.60;;;8.95;;
3755;SDS011;1893;52.526;13.360;2022-12-11T12:20:28;20.77;;;10.55;;
3755;SDS011;1893;52.526;13.360;2022-12-11T12:25:41;15.75;;;9.25;;
3755;SDS011;1893;52.526;13.360;2022-12-11T12:28:35;15.27;;;8.68;;
3755;SDS011;1893;52.526;13.360;2022-12-11T12:34:13;18.73;;;9.10;;
3755;SDS011;1893;52.526;13.360;2022-12-11T12:48:49;18.08;;;8.68;;
3755;SDS011;1893;52.526;13.360;2022-12-11T12:51:18;25.20;;;10.15;;
3755;SDS011;1893;52.526;13.360;2022-12-11T12:53:47;16.80;;;8.48;;
3755;SDS011;1893;52.526;13.360;2022-12-11T12:56:18;18.23;;;8.70;;
3755;SDS011;1893;52.526;13.360;2022-12-11T12:58:45;18.27;;;9.48;;
3755;SDS011;1893;52.526;13.360;2022-12-11T13:03:58;17.63;;;8.60;;
3755;SDS011;1893;52.526;13.360;2022-12-11T13:06:39;17.70;;;8.90;;
3755;SDS011;1893;52.526;13.360;2022-12-11T13:09:25;22.15;;;10.05;;
3755;SDS011;1893;52.526;13.360;2022-12-11T13:11:53;19.52;;;9.90;;
3755;SDS011;1893;52.526;13.360;2022-12-11T13:17:04;17.65;;;8.68;;
3755;SDS011;1893;52.526;13.360;2022-12-11T13:19:31;23.33;;;10.63;;
3755;SDS011;1893;52.526;13.360;2022-12-11T13:24:55;18.15;;;10.77;;
3755;SDS011;1893;52.526;13.360;2022-12-11T13:27:45;19.38;;;9.20;;
3755;SDS011;1893;52.526;13.360;2022-12-11T13:32:39;21.23;;;9.77;;
3755;SDS011;1893;52.526;13.360;2022-12-11T13:35:13;22.55;;;11.38;;
3755;SDS011;1893;52.526;13.360;2022-12-11T13:37:44;20.65;;;9.80;;
3755;SDS011;1893;52.526;13.360;2022-12-11T13:40:15;15.75;;;8.38;;
3755;SDS011;1893;52.526;13.360;2022-12-11T13:42:59;20.85;;;10.43;;
3755;SDS011;1893;52.526;13.360;2022-12-11T13:45:29;22.92;;;10.73;;
3755;SDS011;1893;52.526;13.360;2022-12-11T13:48:26;18.13;;;10.32;;
3755;SDS011;1893;52.526;13.360;2022-12-11T13:50:56;24.48;;;9.35;;
3755;SDS011;1893;52.526;13.360;2022-12-11T13:53:23;16.17;;;8.85;;
3755;SDS011;1893;52.526;13.360;2022-12-11T13:55:56;24.13;;;10.47;;
3755;SDS011;1893;52.526;13.360;2022-12-11T13:58:26;17.55;;;9.95;;
3755;SDS011;1893;52.526;13.360;2022-12-11T14:03:40;18.33;;;9.68;;
3755;SDS011;1893;52.526;13.360;2022-12-11T14:06:12;15.85;;;8.25;;
3755;SDS011;1893;52.526;13.360;2022-12-11T14:08:38;18.88;;;9.70;;
3755;SDS011;1893;52.526;13.360;2022-12-11T14:11:11;19.77;;;10.15;;
3755;SDS011;1893;52.526;13.360;2022-12-11T14:13:51;21.60;;;9.65;;
3755;SDS011;1893;52.526;13.360;2022-12-11T14:16:21;19.00;;;10.07;;
3755;SDS011;1893;52.526;13.360;2022-12-11T14:18:49;17.92;;;10.05;;
3755;SDS011;1893;52.526;13.360;2022-12-11T14:21:16;18.98;;;9.82;;
3755;SDS011;1893;52.526;13.360;2022-12-11T14:23:57;19.40;;;9.50;;
3755;SDS011;1893;52.526;13.360;2022-12-11T14:26:26;23.67;;;10.48;;
3755;SDS011;1893;52.526;13.360;2022-12-11T14:28:54;17.52;;;8.73;;
3755;SDS011;1893;52.526;13.360;2022-12-11T14:31:24;19.08;;;9.68;;
3755;SDS011;1893;52.526;13.360;2022-12-11T14:33:57;21.02;;;10.68;;
3755;SDS011;1893;52.526;13.360;2022-12-11T14:36:29;27.08;;;11.00;;
3755;SDS011;1893;52.526;13.360;2022-12-11T14:42:16;17.80;;;8.48;;
3755;SDS011;1893;52.526;13.360;2022-12-11T14:47:19;20.23;;;10.02;;
3755;SDS011;1893;52.526;13.360;2022-12-11T14:50:05;20.70;;;9.00;;
3755;SDS011;1893;52.526;13.360;2022-12-11T14:52:38;18.80;;;9.95;;
3755;SDS011;1893;52.526;13.360;2022-12-11T14:55:15;16.75;;;8.20;;
3755;SDS011;1893;52.526;13.360;2022-12-11T14:57:44;21.00;;;10.45;;
3755;SDS011;1893;52.526;13.360;2022-12-11T15:03:21;19.52;;;10.30;;
3755;SDS011;1893;52.526;13.360;2022-12-11T15:05:54;23.27;;;9.85;;
3755;SDS011;1893;52.526;13.360;2022-12-11T15:08:29;19.35;;;9.13;;
3755;SDS011;1893;52.526;13.360;2022-12-11T15:13:34;16.73;;;10.10;;
3755;SDS011;1893;52.526;13.360;2022-12-11T15:16:03;21.80;;;11.70;;
3755;SDS011;1893;52.526;13.360;2022-12-11T15:18:35;23.63;;;10.50;;
3755;SDS011;1893;52.526;13.360;2022-12-11T15:21:05;24.10;;;10.18;;
3755;SDS011;1893;52.526;13.360;2022-12-11T15:23:55;25.77;;;12.95;;
3755;SDS011;1893;52.526;13.360;2022-12-11T15:26:35;19.88;;;11.38;;
3755;SDS011;1893;52.526;13.360;2022-12-11T15:29:21;21.58;;;12.80;;
3755;SDS011;1893;52.526;13.360;2022-12-11T15:39:49;23.80;;;11.40;;
3755;SDS011;1893;52.526;13.360;2022-12-11T15:42:17;22.45;;;11.05;;
3755;SDS011;1893;52.526;13.360;2022-12-11T15:44:48;23.05;;;10.32;;
3755;SDS011;1893;52.526;13.360;2022-12-11T15:47:14;25.87;;;11.10;;
3755;SDS011;1893;52.526;13.360;2022-12-11T15:49:41;19.75;;;11.52;;
3755;SDS011;1893;52.526;13.360;2022-12-11T15:52:07;25.67;;;13.13;;
3755;SDS011;1893;52.526;13.360;2022-12-11T15:54:33;18.20;;;9.70;;
3755;SDS011;1893;52.526;13.360;2022-12-11T15:56:58;22.97;;;10.23;;
3755;SDS011;1893;52.526;13.360;2022-12-11T15:59:27;22.83;;;11.10;;
3755;SDS011;1893;52.526;13.360;2022-12-11T16:01:52;20.43;;;10.77;;
3755;SDS011;1893;52.526;13.360;2022-12-11T16:04:18;26.00;;;10.97;;
3755;SDS011;1893;52.526;13.360;2022-12-11T16:06:43;27.70;;;11.90;;
3755;SDS011;1893;52.526;13.360;2022-12-11T16:09:10;26.15;;;12.15;;
3755;SDS011;1893;52.526;13.360;2022-12-11T16:11:36;19.03;;;10.40;;
3755;SDS011;1893;52.526;13.360;2022-12-11T16:14:02;25.40;;;11.90;;
3755;SDS011;1893;52.526;13.360;2022-12-11T16:16:28;25.48;;;12.50;;
3755;SDS011;1893;52.526;13.360;2022-12-11T16:18:55;25.13;;;11.60;;
3755;SDS011;1893;52.526;13.360;2022-12-11T16:21:21;21.23;;;10.40;;
3755;SDS011;1893;52.526;13.360;2022-12-11T16:23:46;24.23;;;11.57;;
3755;SDS011;1893;52.526;13.360;2022-12-11T16:26:12;20.90;;;12.10;;
3755;SDS011;1893;52.526;13.360;2022-12-11T16:28:39;32.42;;;13.57;;
3755;SDS011;1893;52.526;13.360;2022-12-11T16:31:10;23.70;;;12.43;;
3755;SDS011;1893;52.526;13.360;2022-12-11T16:33:37;25.27;;;11.50;;
3755;SDS011;1893;52.526;13.360;2022-12-11T16:36:10;20.65;;;10.32;;
3755;SDS011;1893;52.526;13.360;2022-12-11T16:38:42;20.50;;;11.55;;
3755;SDS011;1893;52.526;13.360;2022-12-11T16:41:09;26.05;;;12.13;;
3755;SDS011;1893;52.526;13.360;2022-12-11T16:43:35;21.53;;;11.30;;
3755;SDS011;1893;52.526;13.360;2022-12-11T16:46:00;22.37;;;11.83;;
3755;SDS011;1893;52.526;13.360;2022-12-11T16:48:26;20.80;;;11.23;;